Time;durP1;ratioP1;P1;durP2;ratioP2;P2;SDS_P1;SDS_P2;PMS_P1;PMS_P2;Temp;Humidity;BMP_temperature;BMP_pressure;BME280_temperature;BME280_humidity;BME280_pressure;Samples;Min_cycle;Max_cycle;Signal;HPM_P1;HPM_P2
2022/09/24 00:01:34;;;;;;;14.70;10.50;;;17.20;99.90;;;;;;5046715;28;20211;-35
2022/09/24 00:04:04;;;;;;;13.30;10.73;;;17.20;99.90;;;;;;5047876;28;20204;-35
2022/09/24 00:06:37;;;;;;;13.00;10.03;;;17.10;99.90;;;;;;5046663;28;20219;-34
2022/09/24 00:09:07;;;;;;;16.63;11.10;;;17.10;99.90;;;;;;5048105;28;20690;-34
2022/09/24 00:11:37;;;;;;;12.33;10.30;;;17.10;99.90;;;;;;5048112;28;20686;-34
2022/09/24 00:14:09;;;;;;;13.60;10.57;;;17.10;99.90;;;;;;5048000;28;20216;-34
2022/09/24 00:16:42;;;;;;;13.10;10.83;;;17.10;99.90;;;;;;5048111;28;20200;-34
2022/09/24 00:19:13;;;;;;;13.53;10.40;;;17.10;99.90;;;;;;5030528;28;20208;-34
2022/09/24 00:21:43;;;;;;;12.17;10.87;;;17.10;99.90;;;;;;5047719;28;20210;-34
2022/09/24 00:26:48;;;;;;;13.87;10.90;;;17.00;99.90;;;;;;5047900;28;20220;-34
2022/09/24 00:27:06;;;;;;;15.83;11.53;;;17.00;99.90;;;;;;5048089;28;20200;-34
2022/09/24 00:29:36;;;;;;;15.17;11.37;;;17.00;99.90;;;;;;5047990;28;20227;-34
2022/09/24 00:32:05;;;;;;;15.37;11.83;;;17.00;99.90;;;;;;5047557;28;20570;-34
2022/09/24 00:34:33;;;;;;;16.47;10.80;;;17.00;99.90;;;;;;5047171;28;20760;-34
2022/09/24 00:37:00;;;;;;;14.23;11.10;;;17.00;99.90;;;;;;5047170;28;20200;-34
2022/09/24 00:39:27;;;;;;;13.20;11.00;;;16.90;99.90;;;;;;5047682;28;20603;-34
2022/09/24 00:41:59;;;;;;;14.37;11.17;;;16.90;99.90;;;;;;5045747;28;20687;-34
2022/09/24 00:44:38;;;;;;;14.30;11.10;;;16.90;99.90;;;;;;5048261;28;20207;-34
2022/09/24 00:47:29;;;;;;;14.57;11.20;;;16.90;99.90;;;;;;5047620;28;20208;-35
2022/09/24 00:50:19;;;;;;;13.10;11.23;;;16.90;99.90;;;;;;5044651;28;20220;-35
2022/09/24 00:53:04;;;;;;;13.90;10.93;;;16.90;99.90;;;;;;5047184;28;20548;-36
2022/09/24 00:55:40;;;;;;;13.57;10.60;;;16.90;99.90;;;;;;5047520;28;20251;-36
2022/09/24 00:58:08;;;;;;;12.17;9.43;;;16.80;99.90;;;;;;5049918;28;20288;-36
2022/09/24 01:00:37;;;;;;;14.07;10.20;;;16.80;99.90;;;;;;5066825;28;20210;-36
2022/09/24 01:03:12;;;;;;;11.80;10.10;;;16.80;99.90;;;;;;5065593;28;20637;-36
2022/09/24 01:05:42;;;;;;;12.37;9.80;;;16.80;99.90;;;;;;5052048;28;20184;-36
2022/09/24 01:08:13;;;;;;;12.30;9.73;;;16.80;99.90;;;;;;5052740;28;20231;-36
2022/09/24 01:10:53;;;;;;;12.93;10.00;;;16.80;99.90;;;;;;5065443;28;20214;-36
2022/09/24 01:13:23;;;;;;;11.60;9.50;;;16.80;99.90;;;;;;5066652;28;20195;-35
2022/09/24 01:16:12;;;;;;;11.53;9.80;;;16.80;99.90;;;;;;5054863;28;20203;-36
2022/09/24 01:18:50;;;;;;;10.80;9.40;;;16.70;99.90;;;;;;5066308;28;20255;-36
2022/09/24 01:21:19;;;;;;;13.30;10.17;;;16.70;99.90;;;;;;5066246;28;20720;-36
2022/09/24 01:24:37;;;;;;;11.57;9.73;;;16.70;99.90;;;;;;5066167;28;20207;-36
2022/09/24 01:27:15;;;;;;;11.60;10.17;;;16.70;99.90;;;;;;5060456;28;20212;-35
2022/09/24 01:30:04;;;;;;;11.57;9.40;;;16.70;99.90;;;;;;5057153;28;20231;-36
2022/09/24 01:32:45;;;;;;;13.40;9.93;;;16.70;99.90;;;;;;5066637;28;20669;-36
2022/09/24 01:35:35;;;;;;;13.67;10.23;;;16.60;99.90;;;;;;5066161;28;20221;-36
2022/09/24 01:38:10;;;;;;;13.40;10.83;;;16.60;99.90;;;;;;5065026;28;20206;-36
2022/09/24 01:40:41;;;;;;;12.83;10.43;;;16.60;99.90;;;;;;5066627;28;20639;-36
2022/09/24 01:43:10;;;;;;;12.57;10.37;;;16.60;99.90;;;;;;5066151;28;20744;-35
2022/09/24 01:45:40;;;;;;;13.33;10.87;;;16.60;99.90;;;;;;5066153;28;20638;-37
2022/09/24 01:48:08;;;;;;;13.63;11.40;;;16.60;99.90;;;;;;5066331;28;20274;-36
2022/09/24 01:50:50;;;;;;;14.13;11.20;;;16.60;99.90;;;;;;5065482;28;20795;-35
2022/09/24 01:53:44;;;;;;;13.50;10.70;;;16.60;99.90;;;;;;5064597;28;20211;-35
2022/09/24 01:56:32;;;;;;;15.03;11.93;;;16.60;99.90;;;;;;5065562;28;20211;-34
2022/09/24 01:59:09;;;;;;;14.60;10.87;;;16.60;99.90;;;;;;5065728;28;20238;-35
2022/09/24 02:01:57;;;;;;;13.63;10.80;;;16.60;99.90;;;;;;5064515;28;20218;-35
2022/09/24 02:04:32;;;;;;;14.77;11.37;;;16.60;99.90;;;;;;5065853;28;20207;-36
2022/09/24 02:07:12;;;;;;;18.90;11.73;;;16.50;99.90;;;;;;5065603;28;20227;-34
2022/09/24 02:09:42;;;;;;;17.70;12.00;;;16.50;99.90;;;;;;5066161;28;20628;-34
2022/09/24 02:12:18;;;;;;;14.70;11.17;;;16.50;99.90;;;;;;5065554;28;20257;-34
2022/09/24 02:14:54;;;;;;;13.63;10.93;;;16.50;99.90;;;;;;5065996;28;20214;-34
2022/09/24 02:17:30;;;;;;;13.07;11.40;;;16.50;99.90;;;;;;5066148;28;20692;-35
2022/09/24 02:20:00;;;;;;;15.13;11.57;;;16.50;99.90;;;;;;5065284;28;20620;-41
2022/09/24 02:22:32;;;;;;;13.87;11.60;;;16.50;99.90;;;;;;5065464;28;20902;-37
2022/09/24 02:25:04;;;;;;;14.10;11.47;;;16.50;99.90;;;;;;5064104;28;20203;-36
2022/09/24 02:27:31;;;;;;;14.50;11.53;;;16.50;99.90;;;;;;5065872;28;20343;-35
2022/09/24 02:30:01;;;;;;;16.47;11.93;;;16.50;99.90;;;;;;5065205;28;20516;-35
2022/09/24 02:32:31;;;;;;;14.30;12.40;;;16.50;99.90;;;;;;5066083;28;20735;-34
2022/09/24 02:35:05;;;;;;;14.33;11.70;;;16.50;99.90;;;;;;5065264;28;20504;-34
2022/09/24 02:37:40;;;;;;;15.77;11.90;;;16.50;99.90;;;;;;5065218;28;20563;-35
2022/09/24 02:40:12;;;;;;;15.07;12.50;;;16.50;99.90;;;;;;5064121;28;20260;-34
2022/09/24 02:42:43;;;;;;;15.17;11.90;;;16.50;99.90;;;;;;5065609;28;20219;-36
2022/09/24 02:45:11;;;;;;;15.93;12.23;;;16.50;99.90;;;;;;5065447;28;20231;-36
2022/09/24 02:47:38;;;;;;;17.63;13.17;;;16.50;99.90;;;;;;5063834;28;20207;-36
2022/09/24 02:50:06;;;;;;;15.47;12.77;;;16.50;99.90;;;;;;5065126;28;21025;-36
2022/09/24 02:52:33;;;;;;;17.03;12.97;;;16.50;99.90;;;;;;5064868;28;20203;-36
2022/09/24 02:55:00;;;;;;;14.63;12.20;;;16.50;99.90;;;;;;5063594;28;20226;-36
2022/09/24 02:57:33;;;;;;;18.80;13.20;;;16.50;99.90;;;;;;5065516;28;20265;-34
2022/09/24 03:00:03;;;;;;;13.43;11.53;;;16.50;99.90;;;;;;5063877;28;20246;-35
2022/09/24 03:02:34;;;;;;;14.67;12.13;;;16.50;99.90;;;;;;5064114;28;20253;-36
2022/09/24 03:05:04;;;;;;;15.07;11.90;;;16.40;99.90;;;;;;5065170;28;20245;-36
2022/09/24 03:07:31;;;;;;;14.93;11.73;;;16.40;99.90;;;;;;5064866;28;20663;-36
2022/09/24 03:09:58;;;;;;;15.27;11.93;;;16.40;99.90;;;;;;5065614;28;20234;-35
2022/09/24 03:12:28;;;;;;;20.37;12.17;;;16.40;99.90;;;;;;5064624;28;20252;-35
2022/09/24 03:14:55;;;;;;;15.03;11.77;;;16.40;99.90;;;;;;5069083;28;20207;-34
2022/09/24 03:17:28;;;;;;;14.13;12.07;;;16.40;99.90;;;;;;5067881;28;20211;-34
2022/09/24 03:19:55;;;;;;;15.67;11.97;;;16.40;99.90;;;;;;5068591;28;20216;-35
2022/09/24 03:22:25;;;;;;;16.37;12.23;;;16.40;99.90;;;;;;5067435;28;20204;-34
2022/09/24 03:24:54;;;;;;;15.00;12.23;;;16.40;99.90;;;;;;5068817;28;20214;-34
2022/09/24 03:27:24;;;;;;;14.87;12.47;;;16.40;99.90;;;;;;5068703;28;20277;-34
2022/09/24 03:32:39;;;;;;;15.17;11.87;;;16.40;99.90;;;;;;5068393;28;20326;-35
2022/09/24 03:35:07;;;;;;;14.70;12.43;;;16.40;99.90;;;;;;5067975;28;20673;-34
2022/09/24 03:37:36;;;;;;;15.43;12.93;;;16.40;99.90;;;;;;5068084;28;20286;-34
2022/09/24 03:40:06;;;;;;;15.87;12.20;;;16.30;99.90;;;;;;5066888;28;20204;-34
2022/09/24 03:42:34;;;;;;;15.70;12.50;;;16.30;99.90;;;;;;5068044;28;20215;-34
2022/09/24 03:45:02;;;;;;;15.87;12.63;;;16.30;99.90;;;;;;5068085;28;20227;-34
2022/09/24 03:47:32;;;;;;;15.13;12.37;;;16.30;99.90;;;;;;5068109;28;20203;-34
2022/09/24 03:50:01;;;;;;;17.53;12.60;;;16.30;99.90;;;;;;5067396;28;20219;-33
2022/09/24 03:52:29;;;;;;;15.57;13.07;;;16.30;99.90;;;;;;5067453;28;20219;-33
2022/09/24 03:55:00;;;;;;;15.17;12.63;;;16.30;99.90;;;;;;5067963;28;20253;-33
2022/09/24 03:57:29;;;;;;;15.47;12.10;;;16.30;99.90;;;;;;5067982;28;20199;-33
2022/09/24 03:59:58;;;;;;;14.70;11.97;;;16.30;99.90;;;;;;5066541;28;20239;-34
2022/09/24 04:02:27;;;;;;;14.47;11.73;;;16.30;99.90;;;;;;5067925;28;20305;-34
2022/09/24 04:04:57;;;;;;;14.47;12.37;;;16.30;99.90;;;;;;5066230;28;20630;-34
2022/09/24 04:07:30;;;;;;;15.87;12.70;;;16.30;99.90;;;;;;5066042;28;20211;-33
2022/09/24 04:09:57;;;;;;;16.30;12.43;;;16.30;99.90;;;;;;5066343;28;20228;-34
2022/09/24 04:12:24;;;;;;;14.37;12.47;;;16.20;99.90;;;;;;5067544;28;20700;-34
2022/09/24 04:14:53;;;;;;;14.80;12.80;;;16.20;99.90;;;;;;5067729;28;20203;-36
2022/09/24 04:17:21;;;;;;;15.93;12.90;;;16.20;99.90;;;;;;5067348;28;20203;-34
2022/09/24 04:19:53;;;;;;;16.77;12.80;;;16.20;99.90;;;;;;5067390;28;20218;-34
2022/09/24 04:22:20;;;;;;;15.10;12.93;;;16.20;99.90;;;;;;5067168;28;20207;-35
2022/09/24 04:24:50;;;;;;;14.83;12.40;;;16.20;99.90;;;;;;5067297;28;21167;-34
2022/09/24 04:27:17;;;;;;;18.30;12.87;;;16.20;99.90;;;;;;5065827;28;20215;-34
2022/09/24 04:29:50;;;;;;;17.87;13.07;;;16.20;99.90;;;;;;5066956;28;20319;-34
2022/09/24 04:32:21;;;;;;;16.53;13.07;;;16.20;99.90;;;;;;5066036;28;20241;-34
2022/09/24 04:34:48;;;;;;;16.27;12.57;;;16.10;99.90;;;;;;5065716;28;20700;-34
2022/09/24 04:37:20;;;;;;;17.37;12.73;;;16.10;99.90;;;;;;5067145;28;20203;-34
2022/09/24 04:39:47;;;;;;;15.70;12.23;;;16.10;99.90;;;;;;5065832;28;20196;-34
2022/09/24 04:42:16;;;;;;;15.47;12.33;;;16.10;99.90;;;;;;5067849;28;20298;-34
2022/09/24 04:44:47;;;;;;;16.27;12.63;;;16.10;99.90;;;;;;5050166;28;20499;-34
2022/09/24 04:47:18;;;;;;;15.63;13.00;;;16.10;99.90;;;;;;5067583;28;20209;-34
2022/09/24 04:49:46;;;;;;;15.90;12.53;;;16.10;99.90;;;;;;5066953;28;20389;-35
2022/09/24 04:52:14;;;;;;;16.90;12.93;;;16.10;99.90;;;;;;5067423;28;20200;-35
2022/09/24 04:54:46;;;;;;;16.80;12.17;;;16.00;99.90;;;;;;5065982;28;20212;-35
2022/09/24 04:57:13;;;;;;;16.40;12.23;;;16.00;99.90;;;;;;5067272;28;20487;-34
2022/09/24 04:59:45;;;;;;;14.43;11.97;;;16.10;99.90;;;;;;5061232;28;20236;-34
2022/09/24 05:02:15;;;;;;;15.93;12.93;;;16.00;99.90;;;;;;5052339;28;20204;-35
2022/09/24 05:04:43;;;;;;;16.93;12.13;;;16.00;99.90;;;;;;5053633;28;20199;-35
2022/09/24 05:07:13;;;;;;;17.73;13.50;;;16.00;99.90;;;;;;5050378;28;20200;-35
2022/09/24 05:09:40;;;;;;;16.90;12.97;;;16.00;99.90;;;;;;5054112;28;20231;-34
2022/09/24 05:12:07;;;;;;;15.67;12.23;;;16.00;99.90;;;;;;5055101;28;20621;-34
2022/09/24 05:14:37;;;;;;;15.33;13.40;;;16.00;99.90;;;;;;5048035;28;20196;-35
2022/09/24 05:17:04;;;;;;;15.93;13.53;;;16.00;99.90;;;;;;5048768;28;20662;-35
2022/09/24 05:19:34;;;;;;;15.80;13.07;;;16.00;99.90;;;;;;5060636;28;20204;-35
2022/09/24 05:22:05;;;;;;;20.00;13.77;;;16.00;99.90;;;;;;5066225;28;20222;-34
2022/09/24 05:24:35;;;;;;;18.27;13.07;;;16.00;99.90;;;;;;5067026;28;20300;-34
2022/09/24 05:27:08;;;;;;;15.70;12.50;;;16.00;99.90;;;;;;5066421;28;20206;-36
2022/09/24 05:29:41;;;;;;;18.40;13.73;;;16.00;99.90;;;;;;5051184;28;20315;-34
2022/09/24 05:32:14;;;;;;;18.73;13.73;;;16.00;99.90;;;;;;5055658;28;20731;-34
2022/09/24 05:34:45;;;;;;;18.33;14.07;;;16.00;99.90;;;;;;5045147;28;20659;-35
2022/09/24 05:37:15;;;;;;;18.70;14.20;;;16.00;99.90;;;;;;5065275;28;20673;-36
2022/09/24 05:39:42;;;;;;;20.50;13.90;;;16.00;99.90;;;;;;5066437;28;20222;-36
2022/09/24 05:42:13;;;;;;;17.87;13.77;;;15.90;99.90;;;;;;5064561;28;20330;-35
2022/09/24 05:44:43;;;;;;;19.10;14.07;;;16.00;99.90;;;;;;5051056;28;20204;-34
2022/09/24 05:47:17;;;;;;;18.57;14.13;;;15.90;99.90;;;;;;5046035;28;20290;-35
2022/09/24 05:49:46;;;;;;;19.87;13.93;;;15.90;99.90;;;;;;5045929;28;20232;-35
2022/09/24 05:52:14;;;;;;;17.10;13.43;;;15.90;99.90;;;;;;5046011;28;20192;-35
2022/09/24 05:54:41;;;;;;;21.47;14.17;;;15.90;99.90;;;;;;5046615;28;20204;-34
2022/09/24 05:57:08;;;;;;;19.73;14.53;;;15.90;99.90;;;;;;5042357;28;20629;-34
2022/09/24 05:59:40;;;;;;;21.73;14.77;;;15.90;99.90;;;;;;5048598;28;20676;-35
2022/09/24 06:02:08;;;;;;;19.23;14.47;;;15.90;99.90;;;;;;5032915;28;20205;-35
2022/09/24 06:04:36;;;;;;;18.37;13.83;;;15.90;99.90;;;;;;5048299;28;20205;-34
2022/09/24 06:07:03;;;;;;;18.27;13.97;;;15.90;99.90;;;;;;5044797;28;20295;-35
2022/09/24 06:09:32;;;;;;;21.87;14.57;;;15.90;99.90;;;;;;5047487;28;20243;-34
2022/09/24 06:12:02;;;;;;;20.73;14.13;;;15.90;99.90;;;;;;5052624;28;20198;-34
2022/09/24 06:14:29;;;;;;;19.40;14.43;;;15.90;99.90;;;;;;5043266;28;20216;-34
2022/09/24 06:16:59;;;;;;;19.37;14.30;;;15.90;99.90;;;;;;5051251;28;20563;-34
2022/09/24 06:19:28;;;;;;;18.90;14.07;;;15.90;99.90;;;;;;5056161;28;20620;-34
2022/09/24 06:21:58;;;;;;;19.67;14.37;;;15.90;99.90;;;;;;5059812;28;20195;-35
2022/09/24 06:24:26;;;;;;;21.47;14.77;;;15.90;99.90;;;;;;5051559;28;20586;-34
2022/09/24 06:26:53;;;;;;;20.50;14.03;;;15.90;99.90;;;;;;5051305;28;20758;-34
2022/09/24 06:29:20;;;;;;;18.77;14.17;;;15.90;99.90;;;;;;5065539;28;20708;-34
2022/09/24 06:31:52;;;;;;;21.93;14.20;;;15.90;99.90;;;;;;5046535;28;20219;-35
2022/09/24 06:34:19;;;;;;;19.43;14.43;;;15.90;99.90;;;;;;5043884;28;20208;-34
2022/09/24 06:36:46;;;;;;;19.47;14.27;;;16.00;99.90;;;;;;5042704;28;20200;-35
2022/09/24 06:39:15;;;;;;;20.00;14.07;;;16.00;99.90;;;;;;5043645;28;20617;-35
2022/09/24 06:41:45;;;;;;;21.87;13.77;;;16.00;99.90;;;;;;5044672;28;20555;-35
2022/09/24 06:44:18;;;;;;;18.23;13.33;;;16.00;99.90;;;;;;5061021;28;20705;-35
2022/09/24 06:46:49;;;;;;;20.67;14.33;;;16.00;99.90;;;;;;5048424;28;20204;-35
2022/09/24 06:49:17;;;;;;;20.00;13.80;;;16.00;99.90;;;;;;5053347;28;20236;-35
2022/09/24 06:51:46;;;;;;;22.73;13.60;;;16.00;99.90;;;;;;5044840;28;20195;-34
2022/09/24 06:54:15;;;;;;;20.97;13.40;;;16.00;99.90;;;;;;5064493;28;20211;-34
2022/09/24 06:56:47;;;;;;;21.70;14.60;;;16.00;99.90;;;;;;5050333;28;20206;-34
2022/09/24 06:59:17;;;;;;;22.83;13.60;;;16.00;99.90;;;;;;5006134;28;1106886;-34
2022/09/24 07:01:47;;;;;;;23.40;13.60;;;16.00;99.90;;;;;;5045674;28;20212;-34
2022/09/24 07:04:16;;;;;;;21.63;13.17;;;16.00;99.90;;;;;;5056216;28;20204;-34
2022/09/24 07:09:31;;;;;;;19.30;13.20;;;16.00;99.90;;;;;;5055909;28;20227;-35
2022/09/24 07:12:01;;;;;;;20.63;13.10;;;16.10;99.90;;;;;;5054213;28;20203;-34
2022/09/24 07:14:31;;;;;;;18.70;13.17;;;16.10;99.90;;;;;;5046278;28;20205;-34
2022/09/24 07:16:58;;;;;;;19.00;13.10;;;16.10;99.90;;;;;;5058475;28;20589;-35
2022/09/24 07:19:30;;;;;;;18.80;13.80;;;16.10;99.90;;;;;;5060962;28;20210;-34
2022/09/24 07:21:57;;;;;;;19.60;12.77;;;16.10;99.90;;;;;;5047590;28;20275;-34
2022/09/24 07:24:30;;;;;;;21.93;14.07;;;16.10;99.90;;;;;;5058100;28;20778;-34
2022/09/24 07:27:01;;;;;;;18.43;13.63;;;16.10;99.90;;;;;;5059442;28;20673;-34
2022/09/24 07:29:31;;;;;;;17.73;13.30;;;16.20;99.90;;;;;;5047736;28;20224;-34
2022/09/24 07:31:58;;;;;;;19.37;13.57;;;16.20;99.90;;;;;;5043786;28;20195;-34
2022/09/24 07:34:26;;;;;;;17.47;12.80;;;16.20;99.90;;;;;;5044395;28;20614;-34
2022/09/24 07:36:55;;;;;;;18.37;13.07;;;16.20;99.90;;;;;;5049337;28;20266;-34
2022/09/24 07:39:27;;;;;;;19.07;13.43;;;16.20;99.90;;;;;;5050192;28;20212;-34
2022/09/24 07:42:00;;;;;;;21.37;13.87;;;16.20;99.90;;;;;;5058675;28;20204;-34
2022/09/24 07:44:28;;;;;;;17.77;12.77;;;16.30;99.90;;;;;;5064537;28;20434;-34
2022/09/24 07:46:56;;;;;;;19.40;13.67;;;16.30;99.90;;;;;;5048929;28;20255;-34
2022/09/24 07:49:27;;;;;;;18.40;13.10;;;16.30;99.90;;;;;;5053254;28;20223;-34
2022/09/24 07:51:57;;;;;;;18.40;12.40;;;16.30;99.90;;;;;;5054402;28;20266;-35
2022/09/24 07:54:30;;;;;;;16.50;12.43;;;16.30;99.90;;;;;;5062068;28;20191;-35
2022/09/24 07:57:01;;;;;;;18.73;13.03;;;16.40;99.90;;;;;;5060595;28;20689;-34
2022/09/24 07:59:29;;;;;;;18.80;12.30;;;16.30;99.90;;;;;;5064131;28;20803;-34
2022/09/24 08:01:56;;;;;;;16.47;12.27;;;16.40;99.90;;;;;;5051597;28;20311;-35
2022/09/24 08:04:26;;;;;;;19.83;14.07;;;16.40;99.90;;;;;;5048298;28;20200;-35
2022/09/24 08:06:53;;;;;;;17.43;13.43;;;16.50;99.90;;;;;;5050859;28;20605;-34
2022/09/24 08:09:20;;;;;;;18.00;13.00;;;16.50;99.90;;;;;;5048628;28;20203;-36
2022/09/24 08:11:48;;;;;;;18.13;13.13;;;16.50;99.90;;;;;;5050505;28;20195;-35
2022/09/24 08:14:16;;;;;;;17.10;12.80;;;16.50;99.90;;;;;;5055823;28;20578;-35
2022/09/24 08:16:43;;;;;;;19.27;13.90;;;16.60;99.90;;;;;;5059382;28;20212;-35
2022/09/24 08:19:12;;;;;;;17.47;12.57;;;16.60;99.90;;;;;;5054467;28;20563;-34
2022/09/24 08:21:40;;;;;;;17.13;13.00;;;16.60;99.90;;;;;;5049289;28;20223;-35
2022/09/24 08:24:09;;;;;;;16.43;11.93;;;16.60;99.90;;;;;;5046105;28;20722;-36
2022/09/24 08:26:37;;;;;;;15.90;12.27;;;16.60;99.90;;;;;;5059667;28;20216;-35
2022/09/24 08:29:04;;;;;;;19.63;12.35;;;16.70;99.90;;;;;;5066014;28;20529;-35
2022/09/24 08:31:34;;;;;;;16.20;12.13;;;16.70;99.90;;;;;;5058285;28;20228;-34
2022/09/24 08:34:03;;;;;;;18.93;12.73;;;16.70;99.90;;;;;;5063548;28;21026;-35
2022/09/24 08:36:34;;;;;;;17.50;12.33;;;16.70;99.90;;;;;;5051663;28;20220;-34
2022/09/24 08:39:07;;;;;;;18.47;12.83;;;16.80;99.90;;;;;;5063257;28;20308;-35
2022/09/24 08:41:56;;;;;;;15.83;12.00;;;16.80;99.90;;;;;;5052144;28;20231;-35
2022/09/24 08:48:01;;;;;;;18.97;12.43;;;16.80;99.90;;;;;;5059913;28;20222;-34
2022/09/24 08:50:31;;;;;;;17.10;11.93;;;16.80;99.90;;;;;;5048875;28;20289;-34
2022/09/24 08:53:11;;;;;;;18.27;12.77;;;16.80;99.90;;;;;;5049897;28;20213;-35
2022/09/24 08:55:52;;;;;;;17.60;11.70;;;16.90;99.90;;;;;;5048175;28;20746;-35
2022/09/24 08:58:30;;;;;;;16.90;11.87;;;16.90;99.90;;;;;;5060462;28;20622;-35
2022/09/24 09:01:27;;;;;;;15.77;11.60;;;16.90;99.90;;;;;;5045576;28;20199;-35
2022/09/24 09:04:20;;;;;;;15.50;11.10;;;16.90;99.90;;;;;;5061572;28;20211;-33
2022/09/24 09:07:22;;;;;;;17.97;12.23;;;16.90;99.90;;;;;;5050523;28;20557;-33
2022/09/24 09:10:08;;;;;;;17.20;12.10;;;17.00;99.90;;;;;;5052287;28;20242;-35
2022/09/24 09:12:47;;;;;;;15.98;11.35;;;17.00;99.90;;;;;;5053159;28;20763;-33
2022/09/24 09:15:27;;;;;;;15.80;11.40;;;17.00;99.90;;;;;;5049045;28;20286;-33
2022/09/24 09:18:18;;;;;;;18.97;12.03;;;17.00;99.90;;;;;;5049381;28;20224;-33
2022/09/24 09:20:48;;;;;;;15.30;11.03;;;17.10;99.90;;;;;;5047926;28;20211;-33
2022/09/24 09:23:19;;;;;;;20.53;12.80;;;17.10;99.90;;;;;;5055284;28;20219;-34
2022/09/24 09:25:57;;;;;;;16.80;11.90;;;17.10;99.90;;;;;;5046498;28;20354;-35
2022/09/24 09:28:26;;;;;;;17.20;11.93;;;17.20;99.90;;;;;;5050308;28;20227;-35
2022/09/24 09:30:59;;;;;;;17.35;11.70;;;17.20;99.90;;;;;;5050957;28;20648;-35
2022/09/24 09:33:48;;;;;;;15.77;11.48;;;17.20;99.90;;;;;;5063306;28;20705;-35
2022/09/24 09:36:42;;;;;;;16.03;11.47;;;17.30;99.90;;;;;;5061420;28;20211;-35
2022/09/24 09:39:12;;;;;;;17.63;11.80;;;17.30;99.90;;;;;;5055776;28;20211;-35
2022/09/24 09:41:58;;;;;;;16.70;11.90;;;17.30;99.90;;;;;;5066228;28;20200;-35
2022/09/24 09:44:28;;;;;;;18.03;11.67;;;17.30;99.90;;;;;;5056582;28;20840;-34
2022/09/24 09:47:42;;;;;;;19.77;12.47;;;17.30;99.90;;;;;;5055176;28;20220;-35
2022/09/24 09:50:17;;;;;;;18.77;12.20;;;17.40;99.90;;;;;;5037720;28;20688;-35
2022/09/24 09:52:47;;;;;;;16.80;12.23;;;17.40;99.90;;;;;;5054561;28;21153;-35
2022/09/24 09:55:33;;;;;;;16.40;12.40;;;17.40;99.90;;;;;;5051407;28;20215;-35
2022/09/24 09:58:26;;;;;;;17.53;12.60;;;17.40;99.90;;;;;;5048487;28;20232;-35
2022/09/24 10:01:08;;;;;;;19.60;11.87;;;17.40;99.90;;;;;;5046213;28;21016;-35
2022/09/24 10:03:45;;;;;;;17.93;11.73;;;17.50;99.90;;;;;;5056741;28;20219;-35
2022/09/24 10:06:27;;;;;;;16.05;10.98;;;17.40;99.90;;;;;;5062463;28;20209;-35
2022/09/24 10:09:21;;;;;;;16.40;11.90;;;17.50;99.90;;;;;;5048506;28;20200;-35
2022/09/24 10:11:48;;;;;;;15.23;10.20;;;17.50;99.90;;;;;;5047973;28;20216;-35
2022/09/24 10:14:18;;;;;;;15.93;11.52;;;17.50;99.90;;;;;;5053017;28;20188;-35
2022/09/24 10:16:50;;;;;;;20.10;12.00;;;17.40;99.90;;;;;;5047155;28;20299;-35
2022/09/24 10:19:23;;;;;;;15.37;10.73;;;17.40;99.90;;;;;;5060262;28;20195;-35
2022/09/24 10:21:56;;;;;;;16.10;10.80;;;17.50;99.90;;;;;;5063361;28;20212;-35
2022/09/24 10:24:27;;;;;;;15.88;11.32;;;17.50;99.90;;;;;;5053487;28;20199;-35
2022/09/24 10:26:57;;;;;;;15.15;11.52;;;17.40;99.90;;;;;;5046544;28;20220;-35
2022/09/24 10:32:22;;;;;;;18.98;11.43;;;17.40;99.90;;;;;;5064612;28;20677;-41
2022/09/24 10:35:05;;;;;;;17.23;10.48;;;17.50;99.90;;;;;;5053436;28;20578;-37
2022/09/24 10:37:36;;;;;;;14.73;10.83;;;17.50;99.90;;;;;;5057289;28;20405;-35
2022/09/24 10:40:19;;;;;;;14.33;10.17;;;17.50;99.90;;;;;;5045448;28;20192;-35
2022/09/24 10:42:54;;;;;;;15.60;10.80;;;17.50;99.90;;;;;;5058391;28;20211;-35
2022/09/24 10:45:45;;;;;;;14.83;10.20;;;17.50;99.90;;;;;;5062563;28;20214;-36
2022/09/24 10:48:43;;;;;;;14.83;10.07;;;17.50;99.90;;;;;;5043268;28;20638;-35
2022/09/24 10:51:27;;;;;;;18.80;9.47;;;17.50;99.90;;;;;;5060235;28;20875;-35
2022/09/24 10:54:19;;;;;;;14.10;9.17;;;17.50;99.90;;;;;;5063506;28;20671;-35
2022/09/24 10:56:52;;;;;;;13.13;8.40;;;17.50;99.90;;;;;;5061338;28;20223;-35
2022/09/24 10:59:45;;;;;;;13.67;8.77;;;17.50;99.90;;;;;;5054230;28;20239;-35
2022/09/24 11:02:12;;;;;;;14.23;9.23;;;17.50;99.90;;;;;;5060491;28;20603;-35
2022/09/24 11:04:43;;;;;;;13.17;9.47;;;17.40;99.90;;;;;;5042848;28;20303;-35
2022/09/24 11:07:25;;;;;;;13.98;9.48;;;17.40;99.90;;;;;;5052061;28;20203;-35
2022/09/24 11:10:15;;;;;;;14.77;9.43;;;17.40;99.90;;;;;;5063967;28;20233;-34
2022/09/24 11:13:02;;;;;;;16.17;9.53;;;17.40;99.90;;;;;;5063350;28;20213;-34
2022/09/24 11:15:45;;;;;;;16.10;11.07;;;17.40;99.90;;;;;;5060574;28;20196;-34
2022/09/24 11:18:48;;;;;;;16.23;11.53;;;17.40;99.90;;;;;;5052161;28;20199;-34
2022/09/24 11:22:06;;;;;;;14.13;9.63;;;17.40;99.90;;;;;;5053611;28;20218;-34
2022/09/24 11:25:00;;;;;;;15.27;10.50;;;17.40;99.90;;;;;;5062185;28;20211;-34
2022/09/24 11:27:53;;;;;;;15.37;9.63;;;17.30;99.90;;;;;;5061433;28;20206;-34
2022/09/24 11:30:33;;;;;;;14.37;8.97;;;17.30;99.90;;;;;;5045833;28;20305;-34
2022/09/24 11:33:13;;;;;;;12.07;8.77;;;17.30;99.90;;;;;;5063883;28;20203;-37
2022/09/24 11:35:51;;;;;;;12.50;9.17;;;17.30;99.90;;;;;;5052541;28;20211;-34
2022/09/24 11:38:32;;;;;;;15.17;9.20;;;17.30;99.90;;;;;;5051064;28;20189;-36
2022/09/24 11:41:14;;;;;;;13.52;8.70;;;17.20;99.90;;;;;;5047507;28;20224;-35
2022/09/24 11:44:17;;;;;;;12.02;8.23;;;17.20;99.90;;;;;;5046942;28;20717;-36
2022/09/24 11:47:02;;;;;;;11.33;8.57;;;17.20;99.90;;;;;;5061071;28;20681;-34
2022/09/24 11:49:42;;;;;;;11.73;8.27;;;17.20;99.90;;;;;;5059383;28;20211;-36
2022/09/24 11:52:32;;;;;;;12.48;8.73;;;17.20;99.90;;;;;;5047496;28;20311;-35
2022/09/24 11:55:20;;;;;;;12.97;9.07;;;17.20;99.90;;;;;;5055817;28;20655;-35
2022/09/24 11:58:05;;;;;;;15.67;9.60;;;17.30;99.90;;;;;;5047143;28;20648;-35
2022/09/24 12:00:50;;;;;;;13.27;9.20;;;17.20;99.90;;;;;;5060847;28;20253;-35
2022/09/24 12:03:30;;;;;;;15.67;10.00;;;17.20;99.90;;;;;;5055774;28;20222;-35
2022/09/24 12:06:07;;;;;;;14.33;9.00;;;17.20;99.90;;;;;;5049496;28;20702;-34
2022/09/24 12:09:02;;;;;;;13.87;9.73;;;17.20;99.90;;;;;;5047775;28;20200;-35
2022/09/24 12:11:40;;;;;;;15.63;9.20;;;17.20;99.90;;;;;;5048942;28;20204;-34
2022/09/24 12:14:26;;;;;;;11.23;8.93;;;17.20;99.90;;;;;;5047609;28;20303;-35
2022/09/24 12:17:01;;;;;;;12.80;7.97;;;17.20;99.90;;;;;;5046184;28;20553;-36
2022/09/24 12:19:35;;;;;;;10.43;7.67;;;17.20;99.90;;;;;;5047485;28;20453;-36
2022/09/24 12:22:07;;;;;;;11.70;8.10;;;17.20;99.90;;;;;;5047594;28;20580;-36
2022/09/24 12:24:57;;;;;;;10.85;7.72;;;17.20;99.90;;;;;;5048525;28;20215;-36
2022/09/24 12:27:35;;;;;;;10.80;7.40;;;17.20;99.90;;;;;;5047324;28;20262;-36
2022/09/24 12:33:26;;;;;;;10.18;7.13;;;17.20;99.90;;;;;;5060335;28;20305;-36
2022/09/24 12:35:56;;;;;;;8.83;6.57;;;17.20;99.90;;;;;;5052554;28;20211;-36
2022/09/24 12:38:35;;;;;;;10.23;6.97;;;17.20;99.90;;;;;;5067621;28;20525;-36
2022/09/24 12:41:21;;;;;;;8.67;6.70;;;17.30;99.90;;;;;;5050437;28;20195;-36
2022/09/24 12:43:54;;;;;;;9.30;6.57;;;17.30;99.90;;;;;;5050592;28;20663;-35
2022/09/24 12:46:50;;;;;;;9.50;7.33;;;17.20;99.90;;;;;;5065854;28;20208;-36
2022/09/24 12:49:18;;;;;;;9.88;6.90;;;17.30;99.90;;;;;;5065408;28;20208;-36
2022/09/24 12:51:46;;;;;;;10.77;6.90;;;17.20;99.90;;;;;;5046331;28;20220;-36
2022/09/24 12:54:29;;;;;;;10.03;7.20;;;17.20;99.90;;;;;;5046189;28;20192;-36
2022/09/24 12:57:24;;;;;;;10.37;7.70;;;17.20;99.90;;;;;;5048787;28;20246;-35
2022/09/24 12:59:58;;;;;;;11.77;7.20;;;17.20;99.90;;;;;;5044809;28;20240;-36
2022/09/24 13:02:41;;;;;;;9.13;7.53;;;17.20;99.90;;;;;;5051027;28;20211;-36
2022/09/24 13:05:26;;;;;;;9.97;7.60;;;17.20;99.90;;;;;;5047700;28;20223;-36
2022/09/24 13:08:00;;;;;;;9.13;7.00;;;17.20;99.90;;;;;;5049815;28;20284;-34
2022/09/24 13:10:31;;;;;;;10.03;7.53;;;17.20;99.90;;;;;;5053853;28;20195;-35
2022/09/24 13:12:59;;;;;;;13.10;7.50;;;17.20;99.90;;;;;;5053948;28;20207;-34
2022/09/24 13:15:42;;;;;;;9.20;7.40;;;17.20;99.90;;;;;;5064054;28;20556;-35
2022/09/24 13:18:12;;;;;;;11.07;7.80;;;17.20;99.90;;;;;;5059999;28;20315;-35
2022/09/24 13:20:43;;;;;;;9.70;7.10;;;17.20;99.90;;;;;;5055051;28;20200;-35